Time;durP1;ratioP1;P1;durP2;ratioP2;P2;SDS_P1;SDS_P2;PMS_P1;PMS_P2;Temp;Humidity;BMP_temperature;BMP_pressure;BME280_temperature;BME280_humidity;BME280_pressure;Samples;Min_cycle;Max_cycle;Signal;HPM_P1;HPM_P2
2022/08/16 00:01:22;;;;;;;8.82;7.40;;;;;;;19.20;77.17;99573.84;5022406;28;20029;-69
2022/08/16 00:03:48;;;;;;;8.68;7.78;;;;;;;19.18;77.74;99581.03;5021613;28;20025;-69
2022/08/16 00:06:13;;;;;;;9.70;7.85;;;;;;;19.16;77.99;99572.16;5022156;28;20096;-69
2022/08/16 00:08:39;;;;;;;9.32;8.00;;;;;;;19.16;78.07;99567.31;5002663;28;20060;-69
2022/08/16 00:11:05;;;;;;;9.82;8.40;;;;;;;19.11;77.58;99558.38;5033851;28;20061;-69
2022/08/16 00:13:32;;;;;;;10.93;8.05;;;;;;;19.15;77.55;99564.91;5002122;28;20048;-69
2022/08/16 00:15:58;;;;;;;9.20;8.30;;;;;;;19.09;77.76;99560.78;5006130;28;20029;-69
2022/08/16 00:18:23;;;;;;;10.45;8.05;;;;;;;19.07;78.31;99563.16;5038615;28;20053;-69
2022/08/16 00:20:49;;;;;;;10.32;8.30;;;;;;;19.06;78.80;99556.72;4989109;28;20068;-69
2022/08/16 00:23:14;;;;;;;10.05;7.88;;;;;;;19.05;78.41;99568.31;4989623;28;20021;-69
2022/08/16 00:25:39;;;;;;;10.82;8.23;;;;;;;19.01;78.15;99564.66;4989457;28;20045;-69
2022/08/16 00:28:05;;;;;;;11.88;7.90;;;;;;;19.01;78.57;99567.47;5005205;28;20029;-69
2022/08/16 00:30:31;;;;;;;9.07;8.18;;;;;;;19.00;78.38;99568.63;4989358;28;20029;-69
2022/08/16 00:32:57;;;;;;;9.20;7.95;;;;;;;18.94;78.39;99560.53;5005693;28;20067;-69
2022/08/16 00:35:28;;;;;;;9.23;8.30;;;;;;;18.92;78.43;99557.25;5005758;28;20048;-69
2022/08/16 00:37:55;;;;;;;9.90;7.95;;;;;;;18.92;78.52;99556.47;5021813;28;20024;-69
2022/08/16 00:40:28;;;;;;;8.65;7.85;;;;;;;18.91;78.64;99566.88;5005528;28;20040;-69
2022/08/16 00:42:53;;;;;;;10.55;8.57;;;;;;;18.89;79.19;99569.28;5010992;28;20025;-69
2022/08/16 00:46:06;;;;;;;9.02;7.85;;;;;;;18.83;79.15;99561.50;5005379;28;20137;-69
2022/08/16 00:48:32;;;;;;;11.07;8.30;;;;;;;18.87;79.95;99553.94;4923390;29;20031;-69
2022/08/16 00:51:00;;;;;;;10.75;8.77;;;;;;;18.84;79.77;99555.50;4939256;29;20062;-69
2022/08/16 00:53:26;;;;;;;10.18;8.45;;;;;;;18.84;79.96;99568.75;4938206;29;20043;-69
2022/08/16 00:55:53;;;;;;;9.23;8.35;;;;;;;18.83;80.13;99569.94;4908003;29;20043;-69
2022/08/16 00:58:19;;;;;;;9.65;8.43;;;;;;;18.83;80.23;99558.69;4923637;29;20032;-69
2022/08/16 01:00:46;;;;;;;11.77;9.27;;;;;;;18.80;79.63;99560.22;4889066;29;20042;-69
2022/08/16 01:03:13;;;;;;;10.25;8.73;;;;;;;18.78;80.04;99570.22;4919504;29;20638;-69
2022/08/16 01:05:39;;;;;;;11.18;9.50;;;;;;;18.81;80.91;99567.50;4923397;29;20058;-69
2022/08/16 01:08:05;;;;;;;14.05;10.02;;;;;;;18.80;81.27;99559.41;4923306;29;20535;-69
2022/08/16 01:10:30;;;;;;;11.77;10.55;;;;;;;18.77;81.54;99558.16;4902111;29;20504;-69
2022/08/16 01:12:56;;;;;;;12.95;11.55;;;;;;;18.78;82.18;99559.81;4926637;29;20200;-69
2022/08/16 01:15:22;;;;;;;14.40;11.10;;;;;;;18.76;82.08;99553.75;4923199;29;20074;-69
2022/08/16 01:17:47;;;;;;;11.63;10.05;;;;;;;18.77;82.18;99548.91;4943135;29;20039;-69
2022/08/16 01:20:14;;;;;;;12.77;11.10;;;;;;;18.75;82.03;99547.31;4895813;29;20051;-69
2022/08/16 01:22:58;;;;;;;13.35;11.27;;;;;;;18.75;82.11;99540.88;4971814;28;20038;-69
2022/08/16 01:25:29;;;;;;;14.18;12.65;;;;;;;18.72;82.23;99535.94;5021945;28;20056;-69
2022/08/16 01:27:56;;;;;;;12.80;11.52;;;;;;;18.73;83.18;99540.41;5005702;28;20417;-69
2022/08/16 01:30:33;;;;;;;14.13;11.60;;;;;;;18.72;82.18;99536.78;5006826;28;20513;-69
2022/08/16 01:33:03;;;;;;;14.35;11.95;;;;;;;18.73;83.41;99543.22;5031374;28;20033;-69
2022/08/16 01:35:31;;;;;;;16.90;12.15;;;;;;;18.72;83.82;99544.38;5022076;28;20022;-69
2022/08/16 01:38:00;;;;;;;13.63;12.13;;;;;;;18.71;83.23;99540.75;5018244;28;20060;-69
2022/08/16 01:40:27;;;;;;;13.45;11.77;;;;;;;18.70;82.74;99538.31;4988632;28;20037;-69
2022/08/16 01:42:53;;;;;;;13.77;12.00;;;;;;;18.72;82.68;99541.56;5012616;28;20437;-69
2022/08/16 01:45:18;;;;;;;13.55;11.65;;;;;;;18.71;82.54;99537.94;5005329;28;20029;-70
2022/08/16 01:47:46;;;;;;;14.38;10.45;;;;;;;18.71;82.19;99534.31;5004978;28;20032;-69
2022/08/16 01:50:12;;;;;;;15.32;11.68;;;;;;;18.66;83.03;99529.81;4989329;28;20061;-69
2022/08/16 01:52:37;;;;;;;14.85;11.73;;;;;;;18.67;82.97;99533.44;4988921;28;20469;-69
2022/08/16 01:55:03;;;;;;;13.93;11.63;;;;;;;18.63;81.91;99536.16;5004927;28;20025;-69
2022/08/16 01:57:29;;;;;;;12.82;10.90;;;;;;;18.60;82.48;99527.69;5021403;28;20034;-69
2022/08/16 01:59:55;;;;;;;14.38;11.30;;;;;;;18.62;83.51;99516.88;5025368;28;20036;-69
2022/08/16 02:02:22;;;;;;;12.88;10.73;;;;;;;18.60;81.80;99513.63;5001897;28;20060;-69
2022/08/16 02:04:47;;;;;;;11.82;10.60;;;;;;;18.61;82.81;99520.84;5004146;28;20480;-69
2022/08/16 02:07:14;;;;;;;12.50;11.18;;;;;;;18.58;82.88;99513.16;4999359;28;20088;-69
2022/08/16 02:09:40;;;;;;;13.82;11.23;;;;;;;18.59;82.28;99518.44;5005068;28;20390;-69
2022/08/16 02:12:07;;;;;;;13.82;12.35;;;;;;;18.56;83.26;99510.75;5021165;28;20025;-69
2022/08/16 02:14:33;;;;;;;12.25;10.85;;;;;;;18.57;82.31;99511.56;5021075;28;20037;-69
2022/08/16 02:17:00;;;;;;;13.95;11.43;;;;;;;18.54;83.32;99513.91;5004481;28;20029;-69
2022/08/16 02:19:26;;;;;;;13.20;11.13;;;;;;;18.55;83.28;99517.53;5022412;28;20029;-70
2022/08/16 02:21:52;;;;;;;12.65;10.20;;;;;;;18.54;83.14;99513.91;5024306;28;20059;-69
2022/08/16 02:24:18;;;;;;;11.90;10.50;;;;;;;18.53;82.62;99509.50;5024289;28;20078;-69
2022/08/16 02:26:43;;;;;;;12.65;11.00;;;;;;;18.50;83.28;99513.03;5023713;28;20025;-69
2022/08/16 02:29:09;;;;;;;12.52;11.23;;;;;;;18.51;83.86;99509.03;5033132;28;20028;-69
2022/08/16 02:31:35;;;;;;;15.95;12.45;;;;;;;18.49;83.05;99505.78;5022468;28;20021;-69
2022/08/16 02:34:01;;;;;;;12.50;11.20;;;;;;;18.45;83.55;99507.72;5007927;28;20453;-70
2022/08/16 02:36:26;;;;;;;13.25;11.48;;;;;;;18.45;84.11;99507.72;5007540;28;20017;-69
2022/08/16 02:38:52;;;;;;;13.27;11.18;;;;;;;18.47;83.43;99499.75;5023775;28;20166;-69
2022/08/16 02:41:17;;;;;;;14.23;11.55;;;;;;;18.47;83.82;99502.56;5024024;28;20473;-70
2022/08/16 02:43:43;;;;;;;12.73;11.30;;;;;;;18.46;84.43;99498.09;5040244;28;20064;-69
2022/08/16 02:46:08;;;;;;;12.63;10.55;;;;;;;18.45;84.04;99496.47;5029236;28;20083;-69
2022/08/16 02:48:34;;;;;;;12.63;11.15;;;;;;;18.44;83.98;99489.25;5015389;28;20048;-69
2022/08/16 02:51:01;;;;;;;11.65;10.48;;;;;;;18.45;83.66;99485.22;5002392;28;20029;-70
2022/08/16 02:53:26;;;;;;;11.85;10.52;;;;;;;18.43;83.72;99493.22;4996860;28;20059;-69
2022/08/16 02:55:52;;;;;;;13.15;11.35;;;;;;;18.45;84.59;99482.41;5006211;28;20021;-70
2022/08/16 02:58:19;;;;;;;12.13;10.77;;;;;;;18.42;84.07;99491.59;5029599;28;20025;-69
2022/08/16 03:00:44;;;;;;;11.75;10.55;;;;;;;18.44;84.12;99492.06;5039799;28;20087;-69
2022/08/16 03:03:10;;;;;;;12.13;10.43;;;;;;;18.37;83.91;99489.09;5035654;28;20033;-69
2022/08/16 03:05:35;;;;;;;11.10;10.10;;;;;;;18.38;84.19;99489.91;5022799;28;20029;-69
2022/08/16 03:08:01;;;;;;;12.40;10.60;;;;;;;18.38;83.39;99487.09;5000598;28;20381;-69
2022/08/16 03:10:26;;;;;;;12.90;10.23;;;;;;;18.36;83.61;99486.63;5003762;28;20049;-69
2022/08/16 03:12:52;;;;;;;13.27;10.98;;;;;;;18.36;83.86;99484.66;5021880;28;20067;-69
2022/08/16 03:15:17;;;;;;;12.27;9.70;;;;;;;18.35;83.71;99487.81;5006784;28;20017;-69
2022/08/16 03:17:43;;;;;;;12.40;10.05;;;;;;;18.33;83.17;99485.41;5009254;28;20135;-69
2022/08/16 03:20:10;;;;;;;11.77;10.52;;;;;;;18.31;83.44;99477.34;5011556;28;20155;-70
2022/08/16 03:22:35;;;;;;;10.32;9.23;;;;;;;18.29;83.91;99482.50;5016394;28;20037;-69
2022/08/16 03:25:03;;;;;;;12.82;10.80;;;;;;;18.31;83.44;99482.16;5002361;28;20037;-69
2022/08/16 03:27:29;;;;;;;12.88;11.02;;;;;;;18.29;83.22;99484.50;5019936;28;20515;-69
2022/08/16 03:29:55;;;;;;;11.45;10.13;;;;;;;18.29;83.78;99479.69;4987381;28;20112;-69
2022/08/16 03:32:20;;;;;;;11.82;10.63;;;;;;;18.27;84.17;99482.06;5019325;28;20025;-69
2022/08/16 03:34:46;;;;;;;12.50;10.27;;;;;;;18.26;84.19;99476.81;5026639;28;20025;-69
2022/08/16 03:37:12;;;;;;;11.70;10.45;;;;;;;18.25;84.42;99469.59;5017115;28;20029;-69
2022/08/16 03:39:38;;;;;;;12.68;10.52;;;;;;;18.27;84.36;99467.19;5034938;28;20029;-69
2022/08/16 03:42:04;;;;;;;11.88;10.63;;;;;;;18.23;83.78;99474.75;5019550;28;20033;-69
2022/08/16 03:44:31;;;;;;;12.68;10.50;;;;;;;18.23;84.63;99477.56;5010555;28;20083;-69
2022/08/16 03:46:56;;;;;;;11.77;10.57;;;;;;;18.24;84.46;99480.00;5003399;28;20034;-69
2022/08/16 03:49:22;;;;;;;14.23;10.40;;;;;;;18.26;85.08;99479.63;5003146;28;20037;-69
2022/08/16 03:51:47;;;;;;;13.32;11.68;;;;;;;18.25;86.09;99475.19;4986630;28;20030;-69
2022/08/16 03:54:13;;;;;;;12.27;9.90;;;;;;;18.26;86.36;99474.81;5019651;28;20025;-69
2022/08/16 03:56:39;;;;;;;12.27;10.13;;;;;;;18.26;85.82;99479.63;5003128;28;20095;-69
2022/08/16 03:59:04;;;;;;;15.18;11.05;;;;;;;18.27;86.14;99473.63;5023082;28;20470;-69
2022/08/16 04:01:30;;;;;;;12.82;11.25;;;;;;;18.27;85.06;99473.63;5019042;28;20021;-69
2022/08/16 04:03:55;;;;;;;14.20;11.43;;;;;;;18.28;87.35;99475.25;5018933;28;20025;-69
2022/08/16 04:06:21;;;;;;;11.25;10.05;;;;;;;18.30;85.32;99477.69;5002255;28;20071;-69
2022/08/16 04:08:47;;;;;;;14.25;11.77;;;;;;;18.29;86.86;99476.06;5003696;28;20441;-69
2022/08/16 04:11:12;;;;;;;14.70;11.15;;;;;;;18.30;86.55;99477.69;5035228;28;20040;-69
2022/08/16 04:13:38;;;;;;;16.58;12.25;;;;;;;18.30;87.63;99470.09;5018912;28;20039;-69
2022/08/16 04:16:04;;;;;;;13.13;11.80;;;;;;;18.30;86.88;99475.72;5001655;28;20493;-69
2022/08/16 04:18:30;;;;;;;14.93;12.25;;;;;;;18.31;86.74;99471.72;5002249;28;20038;-69
2022/08/16 04:20:55;;;;;;;15.00;12.55;;;;;;;18.31;87.78;99482.16;5034908;28;20053;-69
2022/08/16 04:23:22;;;;;;;13.90;12.50;;;;;;;18.33;87.50;99473.31;5002292;28;20037;-69
2022/08/16 04:25:47;;;;;;;15.45;12.15;;;;;;;18.33;86.91;99478.94;5002349;28;20400;-69
2022/08/16 04:28:13;;;;;;;14.38;12.82;;;;;;;18.33;88.00;99471.34;5003269;28;20033;-69
2022/08/16 04:30:38;;;;;;;16.05;13.68;;;;;;;18.34;88.06;99472.16;5018216;28;20044;-69
2022/08/16 04:33:04;;;;;;;13.90;12.50;;;;;;;18.34;87.07;99470.16;5018794;28;20084;-69
2022/08/16 04:35:30;;;;;;;14.15;12.60;;;;;;;18.39;87.57;99483.09;5008989;28;20022;-69
2022/08/16 04:37:55;;;;;;;16.88;14.15;;;;;;;18.41;86.88;99483.53;5005007;28;20040;-69
2022/08/16 04:40:21;;;;;;;14.23;12.73;;;;;;;18.40;87.54;99485.53;4993574;28;20490;-69
2022/08/16 04:42:47;;;;;;;16.98;15.15;;;;;;;18.41;87.70;99486.34;5035129;28;20080;-69
2022/08/16 04:45:13;;;;;;;16.80;13.50;;;;;;;18.43;88.18;99487.59;5018533;28;20037;-69
2022/08/16 04:47:39;;;;;;;16.45;14.05;;;;;;;18.41;87.51;99475.91;5000758;28;20025;-69
2022/08/16 04:50:11;;;;;;;15.27;13.68;;;;;;;18.44;88.41;99479.97;5002031;28;20033;-69
2022/08/16 04:52:36;;;;;;;17.08;14.15;;;;;;;18.43;87.89;99481.97;4978399;28;20033;-69
2022/08/16 04:55:10;;;;;;;13.82;11.70;;;;;;;18.47;87.35;99491.31;5002053;28;20382;-70
2022/08/16 04:57:36;;;;;;;16.73;13.98;;;;;;;18.46;87.93;99492.47;5001799;28;20041;-70
2022/08/16 05:00:05;;;;;;;18.05;14.82;;;;;;;18.50;89.06;99495.38;5017941;28;20056;-70
2022/08/16 05:02:31;;;;;;;15.07;12.70;;;;;;;18.51;88.10;99496.97;5015194;28;20030;-70
2022/08/16 05:04:56;;;;;;;15.65;12.05;;;;;;;18.47;87.08;99493.28;5017977;28;20041;-70
2022/08/16 05:07:21;;;;;;;18.30;14.85;;;;;;;18.51;88.09;99480.94;5018070;28;20033;-70
2022/08/16 05:09:47;;;;;;;15.73;13.20;;;;;;;18.53;88.82;99484.19;5034775;28;20040;-72
2022/08/16 05:12:12;;;;;;;18.05;13.50;;;;;;;18.50;88.28;99476.50;5024305;28;20087;-70
2022/08/16 05:14:38;;;;;;;17.90;15.30;;;;;;;18.52;88.61;99490.16;5017877;28;20022;-70
2022/08/16 05:17:03;;;;;;;15.82;12.95;;;;;;;18.51;88.25;99491.38;5018050;28;20036;-71
2022/08/16 05:19:29;;;;;;;18.98;14.50;;;;;;;18.52;88.13;99492.97;5020023;28;20160;-71
2022/08/16 05:21:54;;;;;;;15.95;13.02;;;;;;;18.55;87.58;99489.41;5037604;28;20029;-70
2022/08/16 05:24:20;;;;;;;16.17;13.43;;;;;;;18.54;88.05;99485.81;5037712;28;20041;-70
2022/08/16 05:26:45;;;;;;;20.42;13.60;;;;;;;18.59;89.02;99481.88;5021361;28;20032;-70
2022/08/16 05:29:11;;;;;;;22.15;15.38;;;;;;;18.60;89.50;99474.25;5005012;28;20036;-70
2022/08/16 05:31:36;;;;;;;17.75;13.43;;;;;;;18.61;88.62;99484.31;5020513;28;20025;-70
2022/08/16 05:34:02;;;;;;;16.02;12.40;;;;;;;18.63;87.83;99484.75;5004105;28;20474;-70
2022/08/16 05:36:27;;;;;;;18.38;13.52;;;;;;;18.65;89.06;99488.00;5004566;28;20021;-70
2022/08/16 05:38:53;;;;;;;15.13;13.38;;;;;;;18.65;89.12;99491.63;5021112;28;20262;-70
2022/08/16 05:41:18;;;;;;;17.40;13.80;;;;;;;18.65;89.04;99485.19;5004815;28;20033;-70
2022/08/16 05:43:44;;;;;;;15.35;13.07;;;;;;;18.68;89.94;99490.06;5021493;28;20028;-70
2022/08/16 05:46:10;;;;;;;13.82;12.43;;;;;;;18.68;88.69;99487.25;5021129;28;20029;-70
2022/08/16 05:48:36;;;;;;;17.42;13.07;;;;;;;18.70;89.39;99487.72;5021004;28;20400;-70
2022/08/16 05:51:01;;;;;;;18.40;13.98;;;;;;;18.73;89.84;99486.97;5020770;28;20033;-70
2022/08/16 05:53:27;;;;;;;22.88;17.27;;;;;;;18.73;91.21;99481.34;5021114;28;20040;-70
2022/08/16 05:55:52;;;;;;;15.23;12.13;;;;;;;18.72;87.68;99479.69;5021018;28;20029;-70
2022/08/16 05:58:18;;;;;;;16.60;11.70;;;;;;;18.75;88.06;99484.63;5006359;28;20444;-71
2022/08/16 06:00:43;;;;;;;18.13;11.57;;;;;;;18.75;87.68;99482.63;5020863;28;20040;-71
2022/08/16 06:03:08;;;;;;;16.95;13.80;;;;;;;18.78;88.02;99486.69;5007576;28;20036;-71
2022/08/16 06:05:34;;;;;;;14.15;11.75;;;;;;;18.81;88.37;99493.56;5007724;28;20033;-71
2022/08/16 06:07:59;;;;;;;12.63;11.30;;;;;;;18.80;88.28;99492.72;5018222;28;20025;-71
2022/08/16 06:10:25;;;;;;;21.13;14.32;;;;;;;18.81;88.78;99505.63;5040931;28;20029;-70
2022/08/16 06:12:50;;;;;;;14.48;11.85;;;;;;;18.84;88.46;99499.25;5040799;28;20040;-71
2022/08/16 06:15:16;;;;;;;15.18;11.50;;;;;;;18.85;88.28;99494.44;5024568;28;20040;-71
2022/08/16 06:17:42;;;;;;;21.80;14.73;;;;;;;18.86;89.33;99491.25;5024777;28;20063;-70
2022/08/16 06:20:08;;;;;;;14.77;12.25;;;;;;;18.87;88.39;99497.69;5007838;28;20116;-71
2022/08/16 06:22:35;;;;;;;21.83;16.65;;;;;;;18.86;90.70;99502.50;5023748;28;20040;-71
2022/08/16 06:25:01;;;;;;;18.33;11.90;;;;;;;18.88;89.44;99508.53;5024450;28;20047;-71
2022/08/16 06:27:26;;;;;;;16.08;12.23;;;;;;;18.91;90.05;99510.59;5058495;28;20477;-69
2022/08/16 06:29:52;;;;;;;15.63;11.80;;;;;;;18.93;89.94;99519.50;5024676;28;20032;-69
2022/08/16 06:32:17;;;;;;;17.17;12.02;;;;;;;18.97;89.62;99514.75;5008177;28;20032;-69
2022/08/16 06:34:43;;;;;;;15.15;11.43;;;;;;;18.96;88.83;99517.94;5004851;28;20033;-69
2022/08/16 06:37:08;;;;;;;12.82;10.93;;;;;;;19.03;89.42;99508.78;5023677;28;20025;-69
2022/08/16 06:39:34;;;;;;;16.17;11.70;;;;;;;19.03;89.11;99505.97;4998406;28;20362;-69
2022/08/16 06:42:00;;;;;;;20.63;16.85;;;;;;;19.05;90.89;99509.25;5012844;28;20030;-69
2022/08/16 06:44:25;;;;;;;19.15;12.75;;;;;;;19.04;89.97;99511.25;5004091;28;20025;-69
2022/08/16 06:46:51;;;;;;;16.38;12.60;;;;;;;19.07;89.86;99506.88;5007269;28;20041;-69
2022/08/16 06:49:16;;;;;;;18.52;11.65;;;;;;;19.08;88.80;99519.75;5002999;28;20090;-69
2022/08/16 06:51:42;;;;;;;16.33;13.55;;;;;;;19.08;90.38;99529.00;5023303;28;20038;-69
2022/08/16 06:54:07;;;;;;;18.52;15.20;;;;;;;19.11;91.99;99535.88;5012765;28;20504;-69
2022/08/16 06:56:33;;;;;;;14.52;12.55;;;;;;;19.12;91.36;99543.16;5040311;28;20029;-69
2022/08/16 06:58:59;;;;;;;15.18;11.95;;;;;;;19.13;91.09;99545.56;5028048;28;20502;-69
2022/08/16 07:01:24;;;;;;;19.05;13.48;;;;;;;19.16;91.28;99544.00;5024663;28;20622;-69
2022/08/16 07:03:50;;;;;;;19.08;14.38;;;;;;;19.17;91.91;99545.66;5016549;28;20060;-69
2022/08/16 07:06:18;;;;;;;11.88;9.98;;;;;;;19.17;90.05;99549.28;5011448;28;20021;-69
2022/08/16 07:08:45;;;;;;;12.05;9.93;;;;;;;19.22;90.58;99548.13;5005096;28;20037;-69
2022/08/16 07:11:11;;;;;;;14.73;12.35;;;;;;;19.22;89.68;99552.94;5007260;28;20029;-69
2022/08/16 07:13:36;;;;;;;12.60;9.98;;;;;;;19.25;90.98;99555.84;5038848;28;20035;-69
2022/08/16 07:16:04;;;;;;;15.95;11.00;;;;;;;19.27;90.71;99563.91;5039669;28;20389;-69
2022/08/16 07:18:29;;;;;;;17.00;10.10;;;;;;;19.27;91.26;99552.63;5017600;28;20022;-69
2022/08/16 07:20:57;;;;;;;12.15;9.73;;;;;;;19.28;89.92;99555.09;5022438;28;20053;-69
2022/08/16 07:23:23;;;;;;;16.60;12.20;;;;;;;19.26;92.97;99554.66;5039401;28;20025;-69
2022/08/16 07:25:48;;;;;;;21.20;13.98;;;;;;;19.27;93.41;99550.63;5006456;28;20681;-69
2022/08/16 07:28:15;;;;;;;14.07;10.27;;;;;;;19.25;90.84;99555.00;5039830;28;20024;-69
2022/08/16 07:30:41;;;;;;;14.45;10.10;;;;;;;19.24;91.12;99550.56;5022725;28;20047;-69
2022/08/16 07:33:06;;;;;;;16.13;12.20;;;;;;;19.23;91.33;99561.03;5001773;28;20029;-69
2022/08/16 07:35:32;;;;;;;12.13;9.55;;;;;;;19.25;91.12;99555.00;5007179;28;20055;-69
2022/08/16 07:37:58;;;;;;;11.77;9.40;;;;;;;19.24;90.72;99559.81;5039086;28;20548;-69
2022/08/16 07:40:24;;;;;;;15.27;9.48;;;;;;;19.26;91.50;99563.09;5022738;28;20033;-69
2022/08/16 07:42:51;;;;;;;14.55;10.18;;;;;;;19.25;92.50;99557.81;5022650;28;20125;-69
2022/08/16 07:45:16;;;;;;;16.90;11.82;;;;;;;19.27;92.85;99564.69;5022886;28;20040;-69
2022/08/16 07:47:42;;;;;;;13.60;8.52;;;;;;;19.29;91.95;99564.34;5038912;28;20032;-69
2022/08/16 07:50:08;;;;;;;14.55;10.00;;;;;;;19.32;93.31;99569.22;5022200;28;20144;-69
2022/08/16 07:52:34;;;;;;;11.75;10.55;;;;;;;19.32;92.86;99569.22;5011060;28;20029;-69
2022/08/16 07:54:59;;;;;;;12.88;9.38;;;;;;;19.35;92.39;99563.63;5022418;28;20032;-68
2022/08/16 07:57:24;;;;;;;14.32;10.15;;;;;;;19.38;92.50;99568.50;5006128;28;20465;-69
2022/08/16 07:59:50;;;;;;;11.43;8.85;;;;;;;19.39;91.01;99567.34;5004068;28;20041;-69
2022/08/16 08:02:16;;;;;;;14.15;8.93;;;;;;;19.42;90.86;99572.22;5001327;28;20112;-69
2022/08/16 08:04:41;;;;;;;10.63;9.25;;;;;;;19.46;93.05;99574.28;5020248;28;20032;-69
2022/08/16 08:07:07;;;;;;;14.23;9.55;;;;;;;19.51;93.35;99573.97;5005509;28;20032;-69
2022/08/16 08:09:33;;;;;;;16.17;9.73;;;;;;;19.54;93.75;99556.31;5022229;28;20048;-69
2022/08/16 08:11:58;;;;;;;15.10;10.52;;;;;;;19.58;94.55;99565.63;5022260;28;20580;-69
2022/08/16 08:14:24;;;;;;;12.05;8.90;;;;;;;19.62;94.03;99563.69;5021940;28;20021;-69
2022/08/16 08:16:49;;;;;;;14.07;10.63;;;;;;;19.66;94.95;99561.75;5005930;28;20405;-69
2022/08/16 08:19:15;;;;;;;12.38;9.45;;;;;;;19.71;94.73;99560.63;5011631;28;20033;-69
2022/08/16 08:21:41;;;;;;;17.80;10.27;;;;;;;19.75;94.99;99553.88;5021762;28;20080;-69
2022/08/16 08:24:08;;;;;;;14.05;10.48;;;;;;;19.78;96.49;99541.84;5006353;28;20451;-69
2022/08/16 08:26:33;;;;;;;12.10;9.07;;;;;;;19.82;96.75;99542.69;5019057;28;20025;-69
2022/08/16 08:28:59;;;;;;;17.38;11.63;;;;;;;19.84;97.80;99543.13;5016610;28;20066;-69
2022/08/16 08:31:25;;;;;;;13.00;9.55;;;;;;;19.89;98.43;99535.53;5021221;28;20431;-69
2022/08/16 08:33:55;;;;;;;14.13;9.52;;;;;;;19.90;97.80;99529.53;5022089;28;20492;-69
2022/08/16 08:36:26;;;;;;;12.95;9.77;;;;;;;19.94;97.53;99527.56;5023104;28;20048;-69
2022/08/16 08:38:52;;;;;;;14.80;8.93;;;;;;;19.97;97.62;99534.44;5018108;28;20033;-69
2022/08/16 08:41:17;;;;;;;11.27;9.23;;;;;;;20.00;98.74;99531.69;5021611;28;20542;-69
2022/08/16 08:43:43;;;;;;;15.63;9.93;;;;;;;20.06;99.37;99535.00;5004774;28;20044;-69
2022/08/16 08:46:09;;;;;;;11.52;8.55;;;;;;;20.11;98.71;99531.00;5027658;28;20029;-69
2022/08/16 08:48:35;;;;;;;13.82;8.23;;;;;;;20.15;99.26;99529.06;5020780;28;20029;-69
2022/08/16 08:51:03;;;;;;;14.73;9.30;;;;;;;20.20;99.33;99526.72;5016130;28;20489;-69
2022/08/16 08:53:29;;;;;;;12.98;8.55;;;;;;;20.25;99.44;99529.19;5019142;28;20025;-69
2022/08/16 08:55:54;;;;;;;14.57;10.07;;;;;;;20.31;100.00;99527.66;5004972;28;20025;-69
2022/08/16 08:58:19;;;;;;;15.50;9.70;;;;;;;20.35;100.00;99536.16;5028453;28;20024;-69
2022/08/16 09:00:45;;;;;;;12.60;8.40;;;;;;;20.39;100.00;99547.47;5026016;28;20029;-69
2022/08/16 09:03:13;;;;;;;14.05;7.43;;;;;;;20.42;100.00;99552.34;5032709;28;20027;-69
2022/08/16 09:05:39;;;;;;;10.50;6.72;;;;;;;20.45;99.54;99551.59;5022003;28;20371;-69
2022/08/16 09:08:05;;;;;;;12.05;6.65;;;;;;;20.49;99.25;99547.59;5002602;28;20059;-69
2022/08/16 09:10:31;;;;;;;9.13;5.85;;;;;;;20.52;98.65;99551.66;4996951;28;20033;-69
2022/08/16 09:12:57;;;;;;;10.48;5.80;;;;;;;20.53;97.89;99551.34;5002231;28;20021;-69
2022/08/16 09:15:23;;;;;;;8.80;5.30;;;;;;;20.60;97.93;99549.78;5014645;28;20029;-69
2022/08/16 09:17:52;;;;;;;8.07;5.50;;;;;;;20.65;96.93;99550.25;5017440;28;20145;-69
2022/08/16 09:20:18;;;;;;;5.90;4.65;;;;;;;20.73;95.83;99551.97;4992472;28;20045;-70
2022/08/16 09:22:43;;;;;;;8.95;5.00;;;;;;;20.79;95.24;99555.25;5004614;28;20034;-69
2022/08/16 09:25:09;;;;;;;6.90;4.35;;;;;;;20.89;95.02;99567.81;5007607;28;20037;-69
2022/08/16 09:27:54;;;;;;;7.32;4.20;;;;;;;21.00;92.98;99549.00;5026246;28;20037;-69
2022/08/16 09:30:42;;;;;;;5.65;3.33;;;;;;;21.17;93.16;99553.19;5017930;28;20100;-69
2022/08/16 09:33:08;;;;;;;4.93;3.25;;;;;;;21.33;92.31;99567.88;5034826;28;20029;-69
2022/08/16 09:35:36;;;;;;;5.22;3.45;;;;;;;21.54;92.83;99561.63;5034091;28;20037;-69
2022/08/16 09:38:02;;;;;;;6.55;3.30;;;;;;;21.73;90.29;99568.22;5017868;28;20025;-69
2022/08/16 09:40:27;;;;;;;5.45;3.25;;;;;;;21.96;90.10;99576.47;5005463;28;20040;-69
2022/08/16 09:42:54;;;;;;;6.03;3.17;;;;;;;22.22;87.17;99566.94;5002124;28;20037;-69
2022/08/16 09:45:20;;;;;;;4.97;3.20;;;;;;;22.44;86.73;99567.88;5020145;28;20060;-69
2022/08/16 09:47:46;;;;;;;4.95;3.00;;;;;;;22.67;85.27;99571.19;5038004;28;20033;-69
2022/08/16 09:50:12;;;;;;;5.68;2.45;;;;;;;22.91;84.94;99574.50;5005126;28;20051;-69
2022/08/16 09:52:37;;;;;;;6.30;2.72;;;;;;;23.17;82.51;99570.53;5037924;28;20486;-69
2022/08/16 09:55:07;;;;;;;6.38;2.60;;;;;;;23.44;81.23;99573.00;5018347;28;20017;-69
2022/08/16 09:57:33;;;;;;;4.00;2.28;;;;;;;23.69;79.12;99565.28;5004248;28;20478;-69
2022/08/16 10:00:00;;;;;;;3.03;1.80;;;;;;;23.93;75.81;99554.34;5021201;28;20029;-69
2022/08/16 10:02:26;;;;;;;4.97;1.85;;;;;;;24.20;75.26;99555.50;5021803;28;20037;-69
2022/08/16 10:04:52;;;;;;;6.05;2.00;;;;;;;24.48;74.65;99562.31;5019448;28;20120;-69
2022/08/16 10:07:17;;;;;;;2.28;1.50;;;;;;;24.73;71.92;99574.38;4994889;28;20034;-69
2022/08/16 10:09:44;;;;;;;5.35;2.30;;;;;;;24.96;69.67;99561.66;5004705;28;20092;-70
2022/08/16 10:14:53;;;;;;;2.45;1.63;;;;;;;25.47;67.58;99577.19;5037913;28;20033;-69
2022/08/16 10:17:20;;;;;;;3.42;1.52;;;;;;;25.64;65.09;99569.75;5034211;28;20052;-69
2022/08/16 10:19:45;;;;;;;2.88;1.65;;;;;;;25.85;65.18;99580.13;5037389;28;20068;-69
2022/08/16 10:22:12;;;;;;;4.07;2.15;;;;;;;25.99;64.19;99591.41;5020180;28;20073;-69
2022/08/16 10:24:37;;;;;;;5.18;2.10;;;;;;;26.17;64.02;99584.69;5037539;28;20034;-69
2022/08/16 10:27:02;;;;;;;6.13;2.38;;;;;;;26.29;64.01;99592.69;5017857;28;20041;-69
2022/08/16 10:29:28;;;;;;;4.25;2.30;;;;;;;26.42;65.23;99596.63;5004907;28;20383;-69
2022/08/16 10:31:53;;;;;;;5.00;1.88;;;;;;;26.56;63.77;99594.88;5002649;28;20033;-69
2022/08/16 10:34:19;;;;;;;3.88;1.80;;;;;;;26.71;60.39;99594.25;5003451;28;20041;-69
2022/08/16 10:36:45;;;;;;;3.13;1.50;;;;;;;26.88;58.85;99594.44;5004001;28;20038;-69
2022/08/16 10:39:10;;;;;;;2.22;1.42;;;;;;;27.06;57.33;99589.31;5003559;28;20037;-69
2022/08/16 10:41:36;;;;;;;2.40;1.48;;;;;;;27.19;58.29;99592.41;5020596;28;20510;-69
2022/08/16 10:44:01;;;;;;;2.30;1.10;;;;;;;27.34;58.66;99593.81;5020609;28;20044;-69
2022/08/16 10:46:27;;;;;;;3.75;1.20;;;;;;;27.46;56.28;99603.00;5020191;28;20029;-69
2022/08/16 10:48:52;;;;;;;2.08;1.13;;;;;;;27.49;54.44;99599.28;5004218;28;20038;-69
2022/08/16 10:51:18;;;;;;;1.23;0.75;;;;;;;27.55;54.52;99597.56;5015602;28;20026;-69
2022/08/16 10:53:44;;;;;;;2.83;1.20;;;;;;;27.60;53.53;99591.34;5003842;28;20129;-69
2022/08/16 10:56:10;;;;;;;4.10;1.10;;;;;;;27.58;52.87;99590.97;5017617;28;20025;-70
2022/08/16 10:58:35;;;;;;;3.08;1.00;;;;;;;27.57;53.62;99590.19;5004067;28;20045;-69
2022/08/16 11:01:03;;;;;;;1.98;1.02;;;;;;;27.68;53.00;99601.41;5000786;28;20036;-69
2022/08/16 11:03:28;;;;;;;4.25;1.00;;;;;;;27.72;52.94;99602.16;5036626;28;20420;-69
2022/08/16 11:05:54;;;;;;;2.15;0.88;;;;;;;27.78;52.81;99599.63;5015157;28;20033;-69
2022/08/16 11:08:20;;;;;;;5.55;1.05;;;;;;;27.80;51.86;99598.00;5020038;28;20029;-69
2022/08/16 11:10:45;;;;;;;1.40;1.00;;;;;;;27.85;51.22;99603.19;4999484;28;20492;-69
2022/08/16 11:13:24;;;;;;;2.72;1.27;;;;;;;27.85;49.87;99600.31;5046173;28;20109;-69
2022/08/16 11:15:51;;;;;;;2.15;0.90;;;;;;;27.98;49.86;99603.38;5036442;28;20021;-69
2022/08/16 11:18:16;;;;;;;2.20;0.90;;;;;;;28.04;49.86;99600.81;4987244;28;20033;-69
2022/08/16 11:20:43;;;;;;;1.20;1.10;;;;;;;28.10;49.93;99612.53;5019651;28;20057;-70